Time;durP1;ratioP1;P1;durP2;ratioP2;P2;SDS_P1;SDS_P2;PMS_P1;PMS_P2;Temp;Humidity;BMP_temperature;BMP_pressure;BME280_temperature;BME280_humidity;BME280_pressure;Samples;Min_cycle;Max_cycle;Signal;HPM_P1;HPM_P2
2022/10/10 00:01:03;;;;;;;10.17;4.80;;;7.10;99.90;;;;;;6276960;22;20539;-83
2022/10/10 00:07:17;;;;;;;10.47;4.60;;;7.10;99.90;;;;;;6266251;22;20463;-83
2022/10/10 00:09:43;;;;;;;10.60;4.87;;;8.10;99.90;;;;;;6249030;22;20023;-83
2022/10/10 00:12:08;;;;;;;10.50;5.03;;;7.00;99.90;;;;;;6275424;22;20027;-83
2022/10/10 00:14:34;;;;;;;11.80;5.00;;;7.00;99.90;;;;;;6249352;22;20014;-83
2022/10/10 00:16:59;;;;;;;15.07;4.97;;;6.90;99.90;;;;;;6249237;22;20016;-83
2022/10/10 00:19:25;;;;;;;9.47;4.63;;;6.90;99.90;;;;;;6219625;23;20480;-83
2022/10/10 00:22:06;;;;;;;11.10;4.77;;;6.70;99.90;;;;;;6218513;23;20118;-83
2022/10/10 00:24:34;;;;;;;10.98;5.15;;;6.50;99.90;;;;;;6218604;23;20020;-83
2022/10/10 00:27:00;;;;;;;11.90;5.10;;;6.30;99.90;;;;;;6245145;23;20027;-83
2022/10/10 00:29:25;;;;;;;10.77;5.30;;;6.70;99.90;;;;;;6218640;23;20031;-83
2022/10/10 00:31:51;;;;;;;11.43;4.93;;;6.90;99.90;;;;;;6218920;23;20020;-83
2022/10/10 00:34:17;;;;;;;12.70;4.90;;;6.90;99.90;;;;;;6217134;23;20535;-83
2022/10/10 00:36:42;;;;;;;12.30;5.20;;;6.90;99.90;;;;;;6218777;23;20066;-83
2022/10/10 00:39:08;;;;;;;16.47;5.30;;;6.90;99.90;;;;;;6217559;23;20012;-83
2022/10/10 00:46:49;;;;;;;11.73;5.10;;;6.80;99.90;;;;;;6235803;23;20024;-83
2022/10/10 00:49:21;;;;;;;11.07;5.50;;;6.70;99.90;;;;;;6245490;23;20027;-83
2022/10/10 00:51:51;;;;;;;12.40;5.33;;;6.70;99.90;;;;;;6245658;23;20452;-83
2022/10/10 00:54:19;;;;;;;11.43;5.43;;;6.80;99.90;;;;;;6244736;23;20008;-83
2022/10/10 00:56:59;;;;;;;10.73;4.93;;;6.80;99.90;;;;;;6245606;23;20070;-83
2022/10/10 00:59:25;;;;;;;12.13;5.10;;;6.70;99.90;;;;;;6218179;23;20411;-83
2022/10/10 01:01:51;;;;;;;11.00;5.17;;;6.80;99.90;;;;;;6243103;23;20013;-83
2022/10/10 01:04:33;;;;;;;11.93;5.80;;;6.80;99.90;;;;;;6243674;23;20047;-83
2022/10/10 01:07:11;;;;;;;10.85;5.20;;;6.80;99.90;;;;;;6245857;23;20085;-83
2022/10/10 01:09:39;;;;;;;10.80;5.07;;;6.80;99.90;;;;;;6243348;23;20017;-83
2022/10/10 01:12:24;;;;;;;12.53;5.17;;;6.80;99.90;;;;;;6243567;23;20016;-82
2022/10/10 01:15:11;;;;;;;12.53;5.57;;;6.90;99.90;;;;;;6242761;23;20332;-82
2022/10/10 01:17:46;;;;;;;10.07;5.22;;;6.80;99.90;;;;;;6218679;23;20008;-83
2022/10/10 01:20:31;;;;;;;11.53;5.53;;;6.80;99.90;;;;;;6244918;23;20514;-83
2022/10/10 01:23:05;;;;;;;10.20;5.03;;;6.90;99.90;;;;;;6244631;23;20023;-83
2022/10/10 01:25:58;;;;;;;12.33;5.40;;;6.80;99.90;;;;;;6218657;23;20020;-83
2022/10/10 01:28:41;;;;;;;13.00;6.00;;;6.80;99.90;;;;;;6244557;23;20012;-83
2022/10/10 01:31:12;;;;;;;11.93;5.43;;;6.80;99.90;;;;;;6218917;23;20012;-83
2022/10/10 01:34:02;;;;;;;10.43;5.40;;;6.80;99.90;;;;;;6218607;23;20024;-83
2022/10/10 01:37:00;;;;;;;11.37;5.10;;;6.70;99.90;;;;;;6244139;23;20020;-83
2022/10/10 01:39:49;;;;;;;11.87;5.60;;;6.70;99.90;;;;;;6244986;23;20069;-83
2022/10/10 01:42:40;;;;;;;12.17;5.60;;;6.70;99.90;;;;;;6243132;23;20012;-83
2022/10/10 01:45:06;;;;;;;11.50;5.50;;;6.70;99.90;;;;;;6246512;22;20046;-83
2022/10/10 01:47:32;;;;;;;12.53;5.70;;;6.60;99.90;;;;;;6275595;22;20066;-83
2022/10/10 01:50:04;;;;;;;10.37;5.40;;;6.60;99.90;;;;;;6247370;22;20024;-83
2022/10/10 01:53:21;;;;;;;12.07;5.53;;;6.50;99.90;;;;;;6274135;22;20018;-83
2022/10/10 01:56:04;;;;;;;11.63;5.33;;;6.40;99.90;;;;;;6275451;22;20026;-83
2022/10/10 01:58:55;;;;;;;12.83;5.97;;;6.30;99.90;;;;;;6247234;22;20321;-83
2022/10/10 02:01:27;;;;;;;12.67;6.27;;;6.20;99.90;;;;;;6247183;22;20012;-83
2022/10/10 02:04:28;;;;;;;13.17;6.07;;;6.30;99.90;;;;;;6230273;23;20111;-83
2022/10/10 02:07:18;;;;;;;11.57;6.20;;;5.60;99.90;;;;;;6217336;23;20035;-83
2022/10/10 02:09:50;;;;;;;13.80;7.53;;;6.30;99.90;;;;;;6217803;23;20107;-83
2022/10/10 02:12:16;;;;;;;13.70;7.77;;;5.20;99.90;;;;;;6216915;23;20097;-83
2022/10/10 02:14:44;;;;;;;12.10;7.13;;;6.00;99.90;;;;;;6245083;23;20078;-83
2022/10/10 02:24:47;;;;;;;14.23;8.30;;;5.90;99.90;;;;;;6244396;23;20020;-83
2022/10/10 02:27:34;;;;;;;14.03;7.63;;;5.70;99.90;;;;;;6243636;23;20016;-83
2022/10/10 02:32:33;;;;;;;16.13;8.23;;;6.10;99.90;;;;;;6273135;22;20059;-83
2022/10/10 02:35:19;;;;;;;12.30;7.45;;;7.80;99.90;;;;;;6275588;22;20015;-82
2022/10/10 02:37:45;;;;;;;14.00;7.20;;;6.10;99.90;;;;;;6248330;22;20023;-83
2022/10/10 02:40:16;;;;;;;14.50;7.30;;;7.50;99.90;;;;;;6274433;22;20042;-83
2022/10/10 02:42:43;;;;;;;14.73;7.37;;;6.10;99.90;;;;;;6248334;22;20012;-82
2022/10/10 02:45:09;;;;;;;13.23;7.20;;;6.10;99.90;;;;;;6247871;22;20037;-83
2022/10/10 02:47:35;;;;;;;16.60;7.30;;;6.00;99.90;;;;;;6246472;22;20448;-82
2022/10/10 02:50:01;;;;;;;12.53;6.77;;;6.00;99.90;;;;;;6248190;22;20151;-83
2022/10/10 02:52:26;;;;;;;12.00;6.37;;;6.00;99.90;;;;;;6247797;22;20011;-83
2022/10/10 02:54:52;;;;;;;14.87;6.80;;;5.90;99.90;;;;;;6274415;22;20070;-83
2022/10/10 02:57:17;;;;;;;13.43;6.57;;;5.90;99.90;;;;;;6247948;22;20067;-83
2022/10/10 02:59:43;;;;;;;13.70;6.77;;;5.90;99.90;;;;;;6247391;22;20023;-83
2022/10/10 03:02:09;;;;;;;12.40;6.63;;;5.90;99.90;;;;;;6247753;22;20039;-83
2022/10/10 03:04:35;;;;;;;13.57;7.00;;;5.90;99.90;;;;;;6275775;22;20016;-83
2022/10/10 03:07:02;;;;;;;11.97;6.70;;;5.90;99.90;;;;;;6246883;22;20462;-82
2022/10/10 03:09:28;;;;;;;13.10;6.23;;;5.80;99.90;;;;;;6247593;22;20016;-83
2022/10/10 03:11:54;;;;;;;14.50;6.63;;;5.80;99.90;;;;;;6275440;22;20050;-83
2022/10/10 03:14:19;;;;;;;14.90;7.20;;;5.80;99.90;;;;;;6246716;22;20017;-83
2022/10/10 03:16:45;;;;;;;13.20;6.97;;;7.20;99.90;;;;;;6247769;22;20062;-83
2022/10/10 03:19:11;;;;;;;13.63;7.33;;;5.70;99.90;;;;;;6248461;22;20083;-83
2022/10/10 03:21:36;;;;;;;14.83;8.00;;;5.70;99.90;;;;;;6249114;22;20514;-83
2022/10/10 03:24:04;;;;;;;18.50;10.17;;;5.70;99.90;;;;;;6250050;22;20020;-83
2022/10/10 03:26:33;;;;;;;23.03;11.13;;;5.70;99.90;;;;;;6244520;22;20015;-83
2022/10/10 03:29:05;;;;;;;22.60;11.80;;;5.70;99.90;;;;;;6243745;23;20020;-83
2022/10/10 03:31:43;;;;;;;26.07;14.00;;;5.70;99.90;;;;;;6246548;22;20020;-82
2022/10/10 03:34:24;;;;;;;28.50;14.20;;;5.30;99.90;;;;;;6244506;23;20016;-83
2022/10/10 03:36:50;;;;;;;27.20;14.70;;;5.10;99.90;;;;;;6244018;23;20437;-83
2022/10/10 03:39:15;;;;;;;28.07;14.27;;;7.10;99.90;;;;;;6268386;22;20019;-83
2022/10/10 03:41:41;;;;;;;27.57;14.23;;;5.40;99.90;;;;;;6277111;22;20452;-82
2022/10/10 03:44:07;;;;;;;24.93;10.33;;;5.60;99.90;;;;;;6275466;22;20016;-83
2022/10/10 03:46:32;;;;;;;22.10;10.00;;;5.60;99.90;;;;;;6249322;22;20019;-83
2022/10/10 03:48:58;;;;;;;20.67;10.43;;;5.60;99.90;;;;;;6276084;22;20065;-83
2022/10/10 03:51:24;;;;;;;19.27;9.17;;;5.60;99.90;;;;;;6249429;22;20448;-83
2022/10/10 03:53:49;;;;;;;18.13;9.23;;;5.50;99.90;;;;;;6249731;22;20031;-83
2022/10/10 03:56:15;;;;;;;17.07;8.07;;;5.50;99.90;;;;;;6275432;22;20011;-83
2022/10/10 03:58:41;;;;;;;15.07;7.00;;;5.50;99.90;;;;;;6249439;22;20095;-83
2022/10/10 04:01:06;;;;;;;16.63;7.70;;;5.50;99.90;;;;;;6276012;22;20041;-83
2022/10/10 04:03:32;;;;;;;15.43;6.87;;;5.50;99.90;;;;;;6275565;22;20448;-83
2022/10/10 04:05:58;;;;;;;15.40;7.03;;;5.50;99.90;;;;;;6275703;22;20020;-83
2022/10/10 04:08:23;;;;;;;13.13;6.53;;;5.50;99.90;;;;;;6248319;22;20016;-83
2022/10/10 04:10:51;;;;;;;15.57;6.87;;;5.50;99.90;;;;;;6247999;22;20023;-83
2022/10/10 04:13:17;;;;;;;13.83;6.70;;;5.50;99.90;;;;;;6248935;22;20469;-83
2022/10/10 04:15:43;;;;;;;13.13;6.37;;;5.50;99.90;;;;;;6276810;22;20022;-83
2022/10/10 04:18:09;;;;;;;12.67;6.63;;;5.50;99.90;;;;;;6275655;22;20051;-83
2022/10/10 04:20:34;;;;;;;12.87;6.43;;;5.50;99.90;;;;;;6249510;22;20020;-83
2022/10/10 04:23:00;;;;;;;15.83;7.23;;;5.40;99.90;;;;;;6249510;22;20019;-83
2022/10/10 04:25:26;;;;;;;13.87;7.30;;;5.70;99.90;;;;;;6275502;22;20735;-83
2022/10/10 04:27:51;;;;;;;14.30;6.67;;;5.40;99.90;;;;;;6277283;22;20011;-83
2022/10/10 04:30:18;;;;;;;14.67;7.10;;;5.50;99.90;;;;;;6276669;22;20016;-83
2022/10/10 04:32:43;;;;;;;15.17;7.40;;;5.40;99.90;;;;;;6248590;22;20459;-83
2022/10/10 04:35:09;;;;;;;14.57;7.20;;;6.30;99.90;;;;;;6249317;22;20026;-83
2022/10/10 04:37:36;;;;;;;16.50;7.10;;;5.50;99.90;;;;;;6276907;22;20008;-83
2022/10/10 04:40:02;;;;;;;14.47;7.50;;;5.50;99.90;;;;;;6248118;22;20019;-83
2022/10/10 04:42:28;;;;;;;17.00;7.73;;;5.50;99.90;;;;;;6276322;22;20011;-83
2022/10/10 04:44:56;;;;;;;16.70;8.37;;;5.90;99.90;;;;;;6252955;22;20022;-83
2022/10/10 04:47:22;;;;;;;14.73;7.50;;;5.40;99.90;;;;;;6250351;22;20011;-83
2022/10/10 04:49:48;;;;;;;18.17;8.60;;;5.40;99.90;;;;;;6249104;22;20054;-83
2022/10/10 04:52:14;;;;;;;15.47;7.80;;;5.40;99.90;;;;;;6248100;22;20011;-83
2022/10/10 04:57:33;;;;;;;15.37;8.20;;;5.40;99.90;;;;;;6264970;22;20030;-83
2022/10/10 05:00:24;;;;;;;17.50;7.18;;;6.50;99.90;;;;;;6275130;22;20656;-83
2022/10/10 05:03:12;;;;;;;16.33;7.50;;;6.00;99.90;;;;;;6275676;22;20008;-83
2022/10/10 05:06:02;;;;;;;13.77;7.27;;;4.90;99.90;;;;;;6248560;22;20086;-83
2022/10/10 05:08:40;;;;;;;13.33;7.13;;;5.60;99.90;;;;;;6236183;23;20016;-83
2022/10/10 05:11:15;;;;;;;15.30;7.43;;;5.30;99.90;;;;;;6245184;23;20459;-83
2022/10/10 05:13:49;;;;;;;17.67;7.77;;;5.40;99.90;;;;;;6216985;23;20115;-83
2022/10/10 05:16:16;;;;;;;16.07;7.47;;;5.60;99.90;;;;;;6217965;23;20024;-83
2022/10/10 05:18:53;;;;;;;13.17;6.90;;;5.20;99.90;;;;;;6217716;23;20082;-83
2022/10/10 05:21:19;;;;;;;13.77;7.13;;;4.10;99.90;;;;;;6217191;23;20022;-83
2022/10/10 05:23:44;;;;;;;15.23;6.63;;;5.20;99.90;;;;;;6218331;23;20094;-83
2022/10/10 05:26:10;;;;;;;13.70;6.83;;;5.40;99.90;;;;;;6217601;23;20062;-83
2022/10/10 05:28:36;;;;;;;12.30;6.23;;;5.40;99.90;;;;;;6216274;23;20016;-83
2022/10/10 05:31:27;;;;;;;13.90;7.10;;;5.20;99.90;;;;;;6217965;23;20024;-83
2022/10/10 05:34:02;;;;;;;13.57;6.73;;;5.40;99.90;;;;;;6218245;23;20012;-83
2022/10/10 05:36:44;;;;;;;13.87;6.87;;;5.20;99.90;;;;;;6216966;23;20514;-83
2022/10/10 05:39:27;;;;;;;14.33;7.07;;;5.80;99.90;;;;;;6217889;23;20020;-83
2022/10/10 05:41:53;;;;;;;14.50;6.70;;;5.50;99.90;;;;;;6244842;23;20023;-83
2022/10/10 05:44:25;;;;;;;14.50;6.50;;;5.10;99.90;;;;;;6244847;23;20016;-83
2022/10/10 05:46:59;;;;;;;14.83;6.80;;;5.30;99.90;;;;;;6218117;23;20016;-83
2022/10/10 05:49:25;;;;;;;18.33;7.47;;;5.20;99.90;;;;;;6216986;23;20027;-83
2022/10/10 05:51:51;;;;;;;16.63;7.40;;;5.20;99.90;;;;;;6218432;23;20016;-82
2022/10/10 05:54:16;;;;;;;13.80;6.50;;;5.30;99.90;;;;;;6218455;23;20059;-82
2022/10/10 05:56:42;;;;;;;15.87;7.37;;;5.30;99.90;;;;;;6217149;23;20079;-81
2022/10/10 05:59:08;;;;;;;14.97;7.20;;;6.20;99.90;;;;;;6217252;23;20095;-81
2022/10/10 06:01:35;;;;;;;15.47;7.07;;;5.30;99.90;;;;;;6244861;23;20012;-81
2022/10/10 06:04:01;;;;;;;16.90;6.70;;;5.30;99.90;;;;;;6217113;23;20023;-81
2022/10/10 06:06:26;;;;;;;15.03;7.27;;;5.30;99.90;;;;;;6217116;23;20012;-81
2022/10/10 06:08:55;;;;;;;14.13;6.43;;;5.30;99.90;;;;;;6217917;23;20412;-81
2022/10/10 06:11:22;;;;;;;15.30;7.00;;;5.30;99.90;;;;;;6243977;23;20016;-81
2022/10/10 06:13:51;;;;;;;13.00;7.03;;;5.30;99.90;;;;;;6244956;23;20013;-80
2022/10/10 06:16:17;;;;;;;14.50;6.83;;;5.30;99.90;;;;;;6217522;23;20043;-81
2022/10/10 06:18:43;;;;;;;13.00;7.00;;;5.30;99.90;;;;;;6216989;23;20020;-81
2022/10/10 06:21:11;;;;;;;14.60;6.80;;;5.30;99.90;;;;;;6243948;23;20500;-81
2022/10/10 06:23:36;;;;;;;14.00;6.90;;;5.70;99.90;;;;;;6244110;23;20383;-81
2022/10/10 06:26:05;;;;;;;14.70;7.07;;;5.40;99.90;;;;;;6216340;23;20107;-81
2022/10/10 06:28:31;;;;;;;14.70;6.90;;;5.50;99.90;;;;;;6244379;23;20012;-81
2022/10/10 06:31:11;;;;;;;13.60;6.83;;;5.50;99.90;;;;;;6216711;23;20035;-80
2022/10/10 06:33:36;;;;;;;13.33;6.87;;;5.60;99.90;;;;;;6218053;23;20075;-81
2022/10/10 06:36:07;;;;;;;15.33;6.87;;;5.60;99.90;;;;;;6244937;23;20024;-81
2022/10/10 06:38:40;;;;;;;12.80;6.73;;;5.60;99.90;;;;;;6217240;23;20023;-80
2022/10/10 06:41:07;;;;;;;16.27;7.28;;;5.70;99.90;;;;;;6214915;23;20352;-81
2022/10/10 06:43:49;;;;;;;13.53;7.03;;;5.70;99.90;;;;;;6192509;23;20017;-81
2022/10/10 06:46:15;;;;;;;14.30;7.23;;;5.50;99.90;;;;;;6216883;23;20016;-80
2022/10/10 06:48:40;;;;;;;15.40;7.23;;;5.70;99.90;;;;;;6217841;23;20013;-80
2022/10/10 06:51:11;;;;;;;15.13;7.33;;;5.80;99.90;;;;;;6217433;23;20325;-81
2022/10/10 06:53:37;;;;;;;13.10;6.83;;;5.90;99.90;;;;;;6244455;23;20043;-81
2022/10/10 06:56:03;;;;;;;14.20;6.87;;;6.00;99.90;;;;;;6246429;23;20514;-81
2022/10/10 06:58:29;;;;;;;14.50;7.97;;;6.00;99.90;;;;;;6246554;23;20008;-81
2022/10/10 07:00:59;;;;;;;14.70;7.57;;;6.00;99.90;;;;;;6218368;23;20523;-83
2022/10/10 07:03:26;;;;;;;14.17;7.33;;;6.20;99.90;;;;;;6219810;23;20456;-83
2022/10/10 07:06:00;;;;;;;16.60;7.80;;;6.30;99.90;;;;;;6246330;23;20452;-81
2022/10/10 07:08:25;;;;;;;;;;;6.40;99.90;;;;;;6247014;23;20027;-84
2022/10/10 07:10:51;;;;;;;16.00;8.07;;;5.90;99.90;;;;;;6218985;23;19915;-82
2022/10/10 07:13:17;;;;;;;16.97;7.30;;;6.60;99.90;;;;;;6243447;23;20016;-82
2022/10/10 07:15:43;;;;;;;17.50;7.03;;;6.70;99.90;;;;;;6246456;23;20508;-82
2022/10/10 07:19:00;;;;;;;15.73;6.50;;;6.80;99.90;;;;;;6201462;22;20043;-82
2022/10/10 07:22:26;;;;;;;13.93;7.17;;;6.10;99.90;;;;;;6248046;22;20028;-83
2022/10/10 07:24:51;;;;;;;17.07;7.50;;;6.40;99.90;;;;;;6277184;22;20020;-82
2022/10/10 07:27:17;;;;;;;14.17;6.33;;;7.00;99.90;;;;;;6248672;22;20004;-82
2022/10/10 07:36:59;;;;;;;12.83;6.60;;;7.70;99.90;;;;;;6276782;22;20019;-82
2022/10/10 07:39:25;;;;;;;17.90;7.00;;;7.60;99.90;;;;;;6274318;22;20035;-83
2022/10/10 07:44:38;;;;;;;16.03;6.60;;;8.10;99.90;;;;;;6246358;23;20085;-83
2022/10/10 07:47:20;;;;;;;14.00;6.63;;;8.40;99.90;;;;;;6245370;23;20024;-83
2022/10/10 07:49:47;;;;;;;15.18;7.28;;;9.30;99.90;;;;;;6244894;23;20510;-85
2022/10/10 07:52:40;;;;;;;14.93;6.50;;;8.50;99.90;;;;;;6245844;23;20055;-84
2022/10/10 07:55:21;;;;;;;14.40;7.00;;;8.30;99.90;;;;;;6218255;23;20016;-85
2022/10/10 07:58:02;;;;;;;11.25;5.85;;;8.50;99.90;;;;;;6246214;23;20239;-83
2022/10/10 08:00:32;;;;;;;14.50;6.43;;;8.60;99.90;;;;;;6219166;23;20016;-84
2022/10/10 08:03:10;;;;;;;17.00;6.35;;;9.90;99.90;;;;;;6243553;23;20020;-83
2022/10/10 08:05:43;;;;;;;13.68;6.55;;;9.90;99.90;;;;;;6245045;23;20012;-84
2022/10/10 08:08:12;;;;;;;13.93;6.45;;;9.50;99.90;;;;;;6245647;23;20012;-81
2022/10/10 08:10:41;;;;;;;19.67;9.23;;;9.30;99.90;;;;;;6218118;23;20019;-83
2022/10/10 08:13:07;;;;;;;14.13;7.20;;;9.50;99.90;;;;;;6244961;23;20318;-83
2022/10/10 08:15:33;;;;;;;15.00;6.63;;;9.60;99.90;;;;;;6245597;23;20076;-83
2022/10/10 08:17:58;;;;;;;16.55;6.75;;;9.80;99.90;;;;;;6218082;23;20093;-83
2022/10/10 08:20:24;;;;;;;13.63;6.05;;;10.00;99.90;;;;;;6245819;23;20551;-83
2022/10/10 08:22:52;;;;;;;17.30;6.05;;;10.10;99.90;;;;;;6219078;23;20421;-84
2022/10/10 08:25:18;;;;;;;14.05;6.35;;;11.00;99.90;;;;;;6217101;23;20099;-84
2022/10/10 08:27:44;;;;;;;13.43;6.03;;;10.50;99.90;;;;;;6243501;23;20020;-84
2022/10/10 08:30:12;;;;;;;15.13;6.20;;;10.60;99.90;;;;;;6218394;23;20016;-84
2022/10/10 08:33:00;;;;;;;14.60;6.60;;;10.70;99.90;;;;;;6218705;23;20012;-83
2022/10/10 08:35:26;;;;;;;12.55;6.22;;;10.80;99.90;;;;;;6218666;23;20031;-84
2022/10/10 08:40:20;;;;;;;14.45;7.25;;;11.00;99.90;;;;;;6215202;23;20027;-82
2022/10/10 08:43:11;;;;;;;17.25;6.82;;;11.00;99.90;;;;;;6215235;23;20126;-82
2022/10/10 08:45:56;;;;;;;14.48;6.38;;;11.20;99.90;;;;;;6187660;23;20052;-82
2022/10/10 08:48:26;;;;;;;13.75;6.32;;;11.00;99.90;;;;;;6215255;23;20020;-82
2022/10/10 08:51:08;;;;;;;13.65;6.35;;;11.40;99.90;;;;;;6188532;23;20021;-83
2022/10/10 08:53:44;;;;;;;16.02;7.90;;;11.50;99.90;;;;;;6214916;23;20013;-82
2022/10/10 08:56:16;;;;;;;12.38;6.13;;;11.90;99.90;;;;;;6214814;23;20047;-82
2022/10/10 08:58:47;;;;;;;13.88;5.97;;;11.60;99.90;;;;;;6188014;23;20147;-83
2022/10/10 09:01:26;;;;;;;14.15;6.28;;;11.70;99.90;;;;;;6215271;23;20017;-82
2022/10/10 09:03:54;;;;;;;13.52;5.75;;;11.70;99.90;;;;;;6188540;23;20017;-83
2022/10/10 09:06:50;;;;;;;12.43;6.20;;;12.40;99.90;;;;;;6214194;23;20027;-83
2022/10/10 09:09:44;;;;;;;15.25;6.13;;;11.70;99.90;;;;;;6187874;23;20429;-83
2022/10/10 09:12:20;;;;;;;15.77;6.28;;;11.80;99.90;;;;;;6215358;23;20099;-82
2022/10/10 09:15:27;;;;;;;15.82;6.15;;;11.90;99.90;;;;;;6187600;23;20020;-85
2022/10/10 09:17:52;;;;;;;14.70;6.30;;;11.90;99.90;;;;;;6141191;23;20016;-83
2022/10/10 09:20:43;;;;;;;13.50;6.53;;;12.40;99.90;;;;;;6186894;23;20016;-83
2022/10/10 09:23:17;;;;;;;13.02;6.40;;;12.00;99.90;;;;;;6214543;23;20095;-83
2022/10/10 09:25:49;;;;;;;14.95;6.80;;;12.10;99.90;;;;;;6188185;23;20023;-83
2022/10/10 09:28:38;;;;;;;13.18;5.97;;;12.10;99.90;;;;;;6186813;23;20016;-83
2022/10/10 09:31:26;;;;;;;13.38;6.22;;;12.10;99.90;;;;;;6188454;23;20398;-83
2022/10/10 09:34:01;;;;;;;14.27;6.72;;;12.10;99.90;;;;;;6185654;23;20017;-83
2022/10/10 09:36:33;;;;;;;14.07;6.30;;;12.20;99.90;;;;;;6214027;23;20589;-84
2022/10/10 09:39:48;;;;;;;13.07;5.78;;;12.20;99.90;;;;;;6208207;23;20504;-83
2022/10/10 09:42:16;;;;;;;14.35;7.15;;;12.30;99.90;;;;;;6185523;23;20083;-84
2022/10/10 09:44:44;;;;;;;12.65;6.38;;;12.10;99.90;;;;;;6187984;23;20008;-84
2022/10/10 09:47:14;;;;;;;14.75;7.20;;;12.40;99.90;;;;;;6187674;23;20051;-85
2022/10/10 09:49:41;;;;;;;12.32;6.32;;;12.40;99.90;;;;;;6187699;23;20463;-83
2022/10/10 09:52:28;;;;;;;13.35;6.50;;;12.50;99.90;;;;;;6188036;23;20023;-84
2022/10/10 09:55:05;;;;;;;13.13;6.68;;;12.60;99.90;;;;;;6214292;23;20017;-83
2022/10/10 09:57:35;;;;;;;14.15;6.72;;;12.70;99.90;;;;;;6214447;23;20338;-84
2022/10/10 10:00:26;;;;;;;15.68;6.28;;;12.80;99.90;;;;;;6214998;23;20471;-84
2022/10/10 10:03:14;;;;;;;14.48;6.13;;;12.80;99.90;;;;;;6213910;23;20441;-83
2022/10/10 10:05:43;;;;;;;12.40;6.50;;;12.90;99.90;;;;;;6215391;23;20071;-84
2022/10/10 10:08:28;;;;;;;12.55;6.18;;;13.40;99.90;;;;;;6188030;23;20627;-84
2022/10/10 10:10:57;;;;;;;17.15;6.43;;;14.50;99.90;;;;;;6187378;23;20044;-84
2022/10/10 10:13:34;;;;;;;13.38;6.40;;;14.90;99.90;;;;;;6187426;23;20453;-84
2022/10/10 10:16:11;;;;;;;12.35;6.35;;;14.00;99.90;;;;;;6213786;23;20020;-84
2022/10/10 10:18:42;;;;;;;14.07;6.45;;;14.10;99.90;;;;;;6187921;23;20021;-84
2022/10/10 10:21:23;;;;;;;13.30;6.30;;;14.20;99.90;;;;;;6264703;22;20012;-84
2022/10/10 10:23:58;;;;;;;14.27;5.97;;;15.60;99.90;;;;;;6247320;22;20019;-84
2022/10/10 10:32:45;;;;;;;11.88;6.15;;;14.50;99.90;;;;;;6257487;22;20077;-83
2022/10/10 10:35:33;;;;;;;12.48;6.20;;;14.70;99.90;;;;;;6275885;22;20069;-83
2022/10/10 10:38:19;;;;;;;12.02;5.90;;;14.70;99.90;;;;;;6275564;22;20047;-83
2022/10/10 10:41:18;;;;;;;13.88;6.50;;;14.80;99.90;;;;;;6248609;22;20448;-83
2022/10/10 10:43:56;;;;;;;14.98;6.40;;;14.90;99.90;;;;;;6276234;22;20317;-83
2022/10/10 10:46:53;;;;;;;14.77;6.97;;;14.80;99.90;;;;;;6276576;22;20015;-83
2022/10/10 10:49:32;;;;;;;13.38;6.72;;;14.80;99.90;;;;;;6248326;22;20018;-83
2022/10/10 10:52:00;;;;;;;14.13;6.63;;;14.90;99.90;;;;;;6247780;22;20012;-84
2022/10/10 10:54:49;;;;;;;14.00;6.47;;;14.90;99.90;;;;;;6248377;22;20039;-84
2022/10/10 10:57:32;;;;;;;13.43;6.05;;;14.90;99.90;;;;;;6275106;22;20394;-83
2022/10/10 11:00:15;;;;;;;13.10;6.43;;;14.80;99.90;;;;;;6247748;22;20016;-83
2022/10/10 11:03:11;;;;;;;12.48;6.55;;;14.80;99.90;;;;;;6248838;22;20019;-84
2022/10/10 11:06:04;;;;;;;12.73;6.43;;;14.80;99.90;;;;;;6275248;22;20012;-83
2022/10/10 11:08:36;;;;;;;14.50;6.53;;;15.10;99.90;;;;;;6275817;22;20091;-84
2022/10/10 11:11:07;;;;;;;13.88;6.85;;;15.30;99.90;;;;;;6249122;22;20024;-84
2022/10/10 11:14:10;;;;;;;13.50;6.28;;;16.50;99.90;;;;;;6275021;22;20061;-83
2022/10/10 11:16:50;;;;;;;13.82;6.53;;;15.70;99.90;;;;;;6248670;22;20066;-84
2022/10/10 11:19:24;;;;;;;13.75;6.45;;;16.40;99.90;;;;;;6274982;22;20012;-84
2022/10/10 11:22:08;;;;;;;14.98;6.05;;;15.70;99.90;;;;;;6248866;22;20055;-84
2022/10/10 11:25:25;;;;;;;12.82;5.95;;;15.60;99.90;;;;;;6247617;22;20275;-84
2022/10/10 11:28:39;;;;;;;13.57;6.55;;;15.40;99.90;;;;;;6247368;22;20042;-84
2022/10/10 11:31:55;;;;;;;13.25;6.55;;;15.30;99.90;;;;;;6248507;22;20069;-84
2022/10/10 11:34:45;;;;;;;15.32;6.60;;;15.30;99.90;;;;;;6262998;22;20463;-84
2022/10/10 11:37:31;;;;;;;35.35;16.10;;;15.40;99.90;;;;;;6247727;22;20060;-84
2022/10/10 11:40:02;;;;;;;12.57;6.30;;;15.40;99.90;;;;;;6248730;22;20456;-83
2022/10/10 11:42:48;;;;;;;17.33;7.70;;;16.70;99.90;;;;;;6249070;22;20012;-84
2022/10/10 11:45:19;;;;;;;11.77;5.53;;;16.50;99.90;;;;;;6249778;22;20011;-84
2022/10/10 11:48:03;;;;;;;14.18;5.78;;;15.40;99.90;;;;;;6276886;22;20007;-84
2022/10/10 11:50:36;;;;;;;14.93;6.00;;;15.50;99.90;;;;;;6250749;22;20460;-83
2022/10/10 11:53:20;;;;;;;13.60;5.88;;;15.40;99.90;;;;;;6251663;22;20019;-84
2022/10/10 11:56:06;;;;;;;13.02;6.20;;;15.40;99.90;;;;;;6250356;22;20019;-83
2022/10/10 11:58:35;;;;;;;13.00;5.93;;;15.40;99.90;;;;;;6250554;22;20026;-83
2022/10/10 12:01:11;;;;;;;12.25;5.50;;;15.20;99.90;;;;;;6277246;22;20453;-84
2022/10/10 12:03:37;;;;;;;16.48;5.88;;;15.20;99.90;;;;;;6276921;22;20067;-84
2022/10/10 12:06:15;;;;;;;16.38;5.60;;;15.20;99.90;;;;;;6250673;22;20023;-84
2022/10/10 12:08:50;;;;;;;13.15;5.80;;;15.20;99.90;;;;;;6276642;22;20019;-84
2022/10/10 12:11:23;;;;;;;14.30;5.78;;;15.20;99.90;;;;;;6276530;22;20466;-83
2022/10/10 12:13:54;;;;;;;13.63;6.65;;;15.40;99.90;;;;;;6276423;22;20351;-83
2022/10/10 12:16:27;;;;;;;13.07;6.38;;;15.10;99.90;;;;;;6276143;22;20023;-83
2022/10/10 12:19:06;;;;;;;12.35;6.10;;;15.00;99.90;;;;;;6250045;22;20079;-84
2022/10/10 12:21:53;;;;;;;12.80;6.10;;;14.90;99.90;;;;;;6249677;22;20024;-84
2022/10/10 12:24:29;;;;;;;14.52;6.25;;;14.80;99.90;;;;;;6227467;23;20021;-84
2022/10/10 12:27:06;;;;;;;14.20;6.53;;;14.20;99.90;;;;;;6214552;23;20031;-83
2022/10/10 12:29:55;;;;;;;15.68;6.45;;;14.70;99.90;;;;;;6213479;23;20013;-83
2022/10/10 12:32:49;;;;;;;15.90;7.20;;;16.20;99.90;;;;;;6214128;23;20099;-83
2022/10/10 12:35:37;;;;;;;15.95;6.38;;;14.30;99.90;;;;;;6216090;23;20341;-83
2022/10/10 12:38:12;;;;;;;15.90;6.43;;;14.70;99.90;;;;;;6213691;23;20039;-83
2022/10/10 12:40:56;;;;;;;14.48;6.20;;;14.80;99.90;;;;;;6241410;22;20058;-83
2022/10/10 12:43:35;;;;;;;;;;;14.80;99.90;;;;;;6276741;22;20455;-83
2022/10/10 12:46:21;;;;;;;15.13;6.18;;;14.90;99.90;;;;;;6249766;22;19915;-83
2022/10/10 12:48:58;;;;;;;15.20;6.57;;;15.10;99.90;;;;;;6249614;22;20022;-84
2022/10/10 12:51:24;;;;;;;15.43;5.82;;;15.00;99.90;;;;;;6247487;22;20026;-83
2022/10/10 12:53:56;;;;;;;16.67;6.18;;;15.00;99.90;;;;;;6249971;22;20020;-83
2022/10/10 12:56:41;;;;;;;13.15;5.80;;;15.00;99.90;;;;;;6276212;22;20016;-83
2022/10/10 12:59:21;;;;;;;12.20;5.72;;;15.00;99.90;;;;;;6248359;22;20016;-83
2022/10/10 13:01:53;;;;;;;13.77;5.55;;;15.00;99.90;;;;;;6277210;22;20012;-83
2022/10/10 13:04:19;;;;;;;12.23;5.57;;;15.30;99.90;;;;;;6249056;22;20020;-83
2022/10/10 13:06:47;;;;;;;12.45;5.88;;;15.80;99.90;;;;;;6248507;22;20016;-83
2022/10/10 13:09:18;;;;;;;12.73;6.28;;;15.20;99.90;;;;;;6276336;22;20019;-83
2022/10/10 13:11:58;;;;;;;13.48;7.00;;;15.10;99.90;;;;;;6275858;22;20356;-84
2022/10/10 13:14:26;;;;;;;13.48;6.07;;;15.10;99.90;;;;;;6276183;22;20327;-83
2022/10/10 13:16:52;;;;;;;14.93;6.50;;;16.10;99.90;;;;;;6228449;23;20445;-84
2022/10/10 13:19:30;;;;;;;16.45;7.25;;;16.40;99.90;;;;;;6244732;23;20024;-84
2022/10/10 13:22:11;;;;;;;14.40;7.20;;;15.00;99.90;;;;;;6218980;23;20055;-84
2022/10/10 13:25:27;;;;;;;16.20;6.45;;;15.40;99.90;;;;;;6216810;23;20023;-83
2022/10/10 13:28:19;;;;;;;12.43;6.93;;;14.90;99.90;;;;;;6244803;23;20463;-84
2022/10/10 13:31:00;;;;;;;14.95;7.38;;;14.70;99.90;;;;;;6245874;23;20028;-84
2022/10/10 13:33:47;;;;;;;15.90;7.38;;;14.60;99.90;;;;;;6217278;23;20021;-83
2022/10/10 13:36:34;;;;;;;15.02;8.10;;;14.40;99.90;;;;;;6218480;23;20372;-83
2022/10/10 13:39:03;;;;;;;16.35;8.45;;;15.60;99.90;;;;;;6218945;23;20384;-83
2022/10/10 13:41:29;;;;;;;15.45;8.10;;;14.50;99.90;;;;;;6217034;23;20524;-83
2022/10/10 13:43:55;;;;;;;16.80;8.63;;;14.80;99.90;;;;;;6218917;23;20016;-83
2022/10/10 13:46:31;;;;;;;14.80;8.70;;;14.30;99.90;;;;;;6218127;23;20012;-83
2022/10/10 13:48:58;;;;;;;15.43;8.68;;;14.20;99.90;;;;;;6217908;23;20070;-83
2022/10/10 13:51:45;;;;;;;16.77;8.85;;;15.10;99.90;;;;;;6245517;23;20016;-83
2022/10/10 13:54:35;;;;;;;16.08;8.77;;;14.00;99.90;;;;;;6217269;23;20016;-84
2022/10/10 13:57:02;;;;;;;24.65;16.27;;;14.00;99.90;;;;;;6218482;23;20016;-83
2022/10/10 13:59:28;;;;;;;22.80;16.52;;;13.90;99.90;;;;;;6218190;23;20012;-83
2022/10/10 14:02:24;;;;;;;17.75;10.65;;;13.90;99.90;;;;;;6238801;23;20020;-83